createdAt,value
2018-11-13T00:00:30.661Z,95.98
2018-11-13T00:01:35.138Z,96.56
2018-11-13T00:02:41.659Z,96.66
2018-11-13T00:03:47.736Z,96.56
2018-11-13T00:04:52.689Z,96.17
2018-11-13T00:05:57.181Z,95.79
2018-11-13T00:07:03.692Z,95.98
2018-11-13T00:08:09.721Z,96.17
2018-11-13T00:09:14.728Z,95.98
2018-11-13T00:10:19.228Z,95.98
2018-11-13T00:11:25.825Z,95.98
2018-11-13T00:12:31.265Z,96.08
2018-11-13T00:13:36.788Z,96.17
2018-11-13T00:14:41.274Z,95.89
2018-11-13T00:15:47.800Z,95.61
2018-11-13T00:16:53.310Z,95.32
2018-11-13T00:17:58.817Z,95.12
2018-11-13T00:19:04.217Z,95.41
2018-11-13T00:20:09.847Z,95.61
2018-11-13T00:21:15.350Z,95.22
2018-11-13T00:22:20.880Z,95.61
2018-11-13T00:23:25.369Z,95.79
2018-11-13T00:24:31.888Z,95.32
2018-11-13T00:25:37.395Z,95.12
2018-11-13T00:26:42.906Z,95.12
2018-11-13T00:27:47.409Z,95.12
2018-11-13T00:28:53.937Z,95.61
2018-11-13T00:29:59.461Z,95.70
2018-11-13T00:31:04.976Z,95.61
2018-11-13T00:32:09.443Z,95.41
2018-11-13T00:33:16.678Z,95.51
2018-11-13T00:34:21.498Z,94.84
2018-11-13T00:35:27.001Z,94.84
2018-11-13T00:36:31.498Z,95.22
2018-11-13T00:37:38.037Z,95.12
2018-11-13T00:38:43.542Z,95.12
2018-11-13T00:39:49.051Z,94.65
2018-11-13T00:40:54.216Z,94.74
2018-11-13T00:42:00.064Z,94.46
2018-11-13T00:43:05.589Z,94.55
2018-11-13T00:44:11.090Z,94.36
2018-11-13T00:45:15.613Z,94.36
2018-11-13T00:46:22.120Z,94.36
2018-11-13T00:47:27.642Z,94.55
2018-11-13T00:48:33.159Z,94.65
2018-11-13T00:49:37.647Z,94.65
2018-11-13T00:50:44.629Z,94.55
2018-11-13T00:51:49.683Z,94.17
2018-11-13T00:52:55.202Z,94.36
2018-11-13T00:53:59.688Z,94.17
2018-11-13T00:55:06.205Z,94.65
2018-11-13T00:56:11.738Z,94.65
2018-11-13T00:57:17.238Z,94.74
2018-11-13T00:58:21.737Z,94.65
2018-11-13T00:59:28.291Z,95.08
2018-11-13T01:00:33.772Z,94.89
2018-11-13T01:01:39.277Z,95.36
2018-11-13T01:02:43.787Z,95.17
2018-11-13T01:03:50.297Z,95.12
2018-11-13T01:04:55.861Z,94.79
2018-11-13T01:06:01.336Z,94.70
2018-11-13T01:07:05.824Z,94.98
2018-11-13T01:08:12.353Z,95.17
2018-11-13T01:09:17.857Z,95.08
2018-11-13T01:10:24.169Z,94.98
2018-11-13T01:11:27.870Z,94.79
2018-11-13T01:12:34.386Z,95.46
2018-11-13T01:13:39.915Z,95.65
2018-11-13T01:14:46.250Z,95.08
2018-11-13T01:15:49.975Z,95.17
2018-11-13T01:16:56.777Z,95.56
2018-11-13T01:18:01.982Z,95.46
2018-11-13T01:19:08.258Z,95.75
2018-11-13T01:20:11.959Z,95.65
2018-11-13T01:21:18.496Z,95.75
2018-11-13T01:22:24.034Z,95.46
2018-11-13T01:23:29.512Z,95.36
2018-11-13T01:24:33.996Z,95.36
2018-11-13T01:25:40.537Z,94.89
2018-11-13T01:26:46.048Z,94.89
2018-11-13T01:27:51.552Z,95.08
2018-11-13T01:28:56.047Z,95.75
2018-11-13T01:30:02.577Z,95.36
2018-11-13T01:31:08.091Z,95.56
2018-11-13T01:32:13.584Z,95.94
2018-11-13T01:33:18.098Z,95.75
2018-11-13T01:34:24.619Z,95.75
2018-11-13T01:35:30.138Z,95.75
2018-11-13T01:36:35.682Z,95.65
2018-11-13T01:37:40.181Z,95.75
2018-11-13T01:38:46.665Z,95.46
2018-11-13T01:39:52.186Z,95.84
2018-11-13T01:40:57.695Z,95.17
2018-11-13T01:42:02.188Z,95.17
2018-11-13T01:43:09.247Z,95.08
2018-11-13T01:44:14.235Z,94.60
2018-11-13T01:45:19.722Z,94.51
2018-11-13T01:46:24.234Z,94.51
2018-11-13T01:47:30.772Z,94.70
2018-11-13T01:48:36.276Z,94.12
2018-11-13T01:49:42.122Z,93.93
2018-11-13T01:50:46.270Z,93.93
2018-11-13T01:51:52.801Z,94.31
2018-11-13T01:52:58.330Z,94.70
2018-11-13T01:54:03.882Z,94.12
2018-11-13T01:55:08.321Z,94.41
2018-11-13T01:56:14.830Z,94.12
2018-11-13T01:57:20.347Z,94.12
2018-11-13T01:58:25.865Z,94.03
2018-11-13T01:59:30.383Z,94.31
2018-11-13T02:00:36.899Z,94.31
2018-11-13T02:01:42.397Z,94.12
2018-11-13T02:02:47.901Z,94.51
2018-11-13T02:03:52.409Z,94.51
2018-11-13T02:04:58.944Z,94.22
2018-11-13T02:06:04.457Z,94.41
2018-11-13T02:07:09.950Z,94.70
2018-11-13T02:08:14.464Z,94.41
2018-11-13T02:09:20.999Z,94.03
2018-11-13T02:10:26.488Z,94.22
2018-11-13T02:11:32.026Z,94.12
2018-11-13T02:12:36.497Z,94.51
2018-11-13T02:13:43.019Z,94.70
2018-11-13T02:14:48.549Z,94.22
2018-11-13T02:15:54.063Z,94.51
2018-11-13T02:16:59.203Z,94.60
2018-11-13T02:18:05.078Z,94.22
2018-11-13T02:19:10.579Z,94.22
2018-11-13T02:20:16.105Z,94.60
2018-11-13T02:21:21.302Z,94.12
2018-11-13T02:22:27.121Z,94.89
2018-11-13T02:23:32.631Z,94.41
2018-11-13T02:24:38.137Z,94.70
2018-11-13T02:25:42.650Z,94.60
2018-11-13T02:26:49.152Z,94.70
2018-11-13T02:27:54.689Z,94.60
2018-11-13T02:29:00.188Z,95.27
2018-11-13T02:30:04.683Z,95.08
2018-11-13T02:31:11.204Z,94.70
2018-11-13T02:32:16.739Z,94.51
2018-11-13T02:33:22.241Z,94.70
2018-11-13T02:34:26.731Z,94.60
2018-11-13T02:35:33.338Z,94.51
2018-11-13T02:36:38.766Z,94.89
2018-11-13T02:37:44.284Z,94.60
2018-11-13T02:38:48.770Z,95.27
2018-11-13T02:39:55.300Z,94.89
2018-11-13T02:41:00.804Z,95.08
2018-11-13T02:42:06.321Z,95.08
2018-11-13T02:43:10.834Z,95.36
2018-11-13T02:44:17.345Z,95.27
2018-11-13T02:45:23.734Z,95.17
2018-11-13T02:46:28.380Z,95.36
2018-11-13T02:47:32.877Z,95.27
2018-11-13T02:48:39.385Z,95.36
2018-11-13T02:49:44.908Z,95.27
2018-11-13T02:50:50.421Z,95.27
2018-11-13T02:51:54.913Z,95.08
2018-11-13T02:53:01.435Z,95.17
2018-11-13T02:54:06.934Z,95.36
2018-11-13T02:55:12.457Z,95.36
2018-11-13T02:56:16.953Z,94.89
2018-11-13T02:57:23.490Z,95.27
2018-11-13T02:58:28.983Z,95.36
2018-11-13T02:59:34.493Z,94.98
2018-11-13T03:00:39.007Z,95.56
2018-11-13T03:01:45.511Z,95.46
2018-11-13T03:02:51.049Z,95.36
2018-11-13T03:03:56.543Z,95.56
2018-11-13T03:05:01.046Z,95.56
2018-11-13T03:06:07.572Z,95.56
2018-11-13T03:07:13.067Z,95.56
2018-11-13T03:08:18.600Z,95.75
2018-11-13T03:09:23.090Z,95.56
2018-11-13T03:10:29.629Z,95.65
2018-11-13T03:11:35.132Z,95.65
2018-11-13T03:12:40.629Z,94.98
2018-11-13T03:13:45.215Z,95.75
2018-11-13T03:14:51.657Z,95.56
2018-11-13T03:15:57.172Z,95.56
2018-11-13T03:17:02.684Z,96.03
2018-11-13T03:18:07.186Z,96.03
2018-11-13T03:19:13.714Z,95.56
2018-11-13T03:20:19.228Z,95.75
2018-11-13T03:21:24.733Z,96.03
2018-11-13T03:22:29.229Z,96.13
2018-11-13T03:23:35.736Z,95.84
2018-11-13T03:24:41.261Z,95.94
2018-11-13T03:25:46.775Z,95.84
2018-11-13T03:26:51.288Z,96.03
2018-11-13T03:27:57.797Z,96.03
2018-11-13T03:29:03.300Z,95.94
2018-11-13T03:30:08.831Z,96.22
2018-11-13T03:31:13.349Z,96.13
2018-11-13T03:32:19.835Z,96.13
2018-11-13T03:33:25.347Z,95.94
2018-11-13T03:34:30.862Z,95.84
2018-11-13T03:35:35.364Z,96.03
2018-11-13T03:36:41.876Z,95.94
2018-11-13T03:37:47.405Z,96.70
2018-11-13T03:38:52.892Z,96.03
2018-11-13T03:39:57.407Z,96.13
2018-11-13T03:41:03.930Z,96.32
2018-11-13T03:42:09.446Z,96.61
2018-11-13T03:43:14.954Z,96.51
2018-11-13T03:44:19.447Z,95.94
2018-11-13T03:45:25.980Z,96.32
2018-11-13T03:46:31.476Z,96.42
2018-11-13T03:47:36.995Z,96.51
2018-11-13T03:48:41.502Z,96.51
2018-11-13T03:49:48.030Z,96.51
2018-11-13T03:50:53.527Z,96.13
2018-11-13T03:51:59.047Z,96.80
2018-11-13T03:53:03.550Z,95.84
2018-11-13T03:54:10.058Z,96.51
2018-11-13T03:55:15.562Z,96.13
2018-11-13T03:56:21.081Z,96.03
2018-11-13T03:57:25.573Z,96.13
2018-11-13T03:58:32.105Z,96.51
2018-11-13T03:59:37.611Z,96.13
2018-11-13T04:00:43.136Z,96.22
2018-11-13T04:01:47.629Z,96.32
2018-11-13T04:02:54.154Z,96.42
2018-11-13T04:03:59.666Z,96.13
2018-11-13T04:05:05.204Z,96.13
2018-11-13T04:06:09.667Z,96.13
2018-11-13T04:07:16.208Z,96.22
2018-11-13T04:08:21.716Z,96.03
2018-11-13T04:09:27.207Z,96.51
2018-11-13T04:10:31.722Z,96.32
2018-11-13T04:11:38.248Z,96.51
2018-11-13T04:12:43.773Z,96.03
2018-11-13T04:13:49.291Z,95.94
2018-11-13T04:14:53.762Z,95.94
2018-11-13T04:16:00.274Z,96.03
2018-11-13T04:17:05.798Z,95.56
2018-11-13T04:18:11.315Z,95.75
2018-11-13T04:19:15.830Z,96.03
2018-11-13T04:20:23.320Z,95.56
2018-11-13T04:21:27.843Z,96.22
2018-11-13T04:22:33.366Z,95.75
2018-11-13T04:23:37.851Z,95.94
2018-11-13T04:24:44.377Z,96.03
2018-11-13T04:25:49.882Z,95.94
2018-11-13T04:26:55.397Z,95.27
2018-11-13T04:27:59.890Z,95.56
2018-11-13T04:29:06.414Z,95.75
2018-11-13T04:30:11.945Z,95.56
2018-11-13T04:31:17.451Z,95.84
2018-11-13T04:32:21.947Z,95.75
2018-11-13T04:33:28.471Z,96.03
2018-11-13T04:34:33.976Z,95.65
2018-11-13T04:35:39.489Z,95.17
2018-11-13T04:36:44.013Z,95.08
2018-11-13T04:37:50.511Z,95.65
2018-11-13T04:38:56.030Z,95.65
2018-11-13T04:40:01.541Z,95.56
2018-11-13T04:41:06.033Z,95.17
2018-11-13T04:42:12.555Z,95.27
2018-11-13T04:43:18.069Z,95.08
2018-11-13T04:44:23.581Z,94.89
2018-11-13T04:45:28.083Z,94.98
2018-11-13T04:46:34.601Z,95.27
2018-11-13T04:47:40.130Z,95.17
2018-11-13T04:48:45.618Z,94.93
2018-11-13T04:49:50.137Z,94.31
2018-11-13T04:50:56.667Z,94.31
2018-11-13T04:52:02.157Z,94.22
2018-11-13T04:53:07.666Z,95.41
2018-11-13T04:54:12.156Z,95.32
2018-11-13T04:55:18.686Z,94.17
2018-11-13T04:56:24.201Z,93.98
2018-11-13T04:57:29.724Z,94.07
2018-11-13T04:58:34.220Z,93.98
2018-11-13T04:59:40.731Z,93.70
2018-11-13T05:00:46.252Z,93.12
2018-11-13T05:01:51.772Z,92.83
2018-11-13T05:02:56.296Z,92.88
2018-11-13T05:04:02.775Z,92.93
2018-11-13T05:05:08.285Z,92.83
2018-11-13T05:06:13.807Z,92.93
2018-11-13T05:07:18.300Z,92.93
2018-11-13T05:08:24.856Z,92.55
2018-11-13T05:09:30.338Z,92.74
2018-11-13T05:10:35.850Z,92.74
2018-11-13T05:11:40.349Z,93.60
2018-11-13T05:12:46.871Z,93.50
2018-11-13T05:13:52.382Z,93.60
2018-11-13T05:14:57.895Z,93.12
2018-11-13T05:16:02.399Z,93.98
2018-11-13T05:17:08.941Z,92.83
2018-11-13T05:18:14.426Z,92.45
2018-11-13T05:19:19.937Z,92.16
2018-11-13T05:20:24.428Z,91.88
2018-11-13T05:21:30.965Z,92.16
2018-11-13T05:22:36.473Z,91.88
2018-11-13T05:23:41.989Z,91.88
2018-11-13T05:24:46.483Z,91.11
2018-11-13T05:25:53.006Z,91.21
2018-11-13T05:26:58.519Z,91.88
2018-11-13T05:28:04.044Z,91.40
2018-11-13T05:29:08.542Z,91.97
2018-11-13T05:30:15.064Z,91.88
2018-11-13T05:31:20.577Z,92.26
2018-11-13T05:32:26.072Z,91.88
2018-11-13T05:33:30.588Z,91.69
2018-11-13T05:34:37.094Z,91.30
2018-11-13T05:35:42.628Z,91.88
2018-11-13T05:36:48.139Z,91.88
2018-11-13T05:37:52.611Z,92.26
2018-11-13T05:38:59.157Z,92.21
2018-11-13T05:40:04.659Z,92.31
2018-11-13T05:41:10.173Z,92.21
2018-11-13T05:42:14.665Z,92.41
2018-11-13T05:43:21.211Z,91.74
2018-11-13T05:44:26.703Z,90.88
2018-11-13T05:45:32.213Z,90.69
2018-11-13T05:46:36.723Z,91.07
2018-11-13T05:47:43.250Z,91.16
2018-11-13T05:48:48.746Z,91.26
2018-11-13T05:49:54.261Z,91.93
2018-11-13T05:50:58.756Z,90.88
2018-11-13T05:52:05.299Z,91.16
2018-11-13T05:53:10.798Z,92.02
2018-11-13T05:54:16.296Z,92.21
2018-11-13T05:55:20.803Z,92.31
2018-11-13T05:56:27.329Z,91.36
2018-11-13T05:57:32.841Z,91.36
2018-11-13T05:58:38.356Z,91.55
2018-11-13T05:59:42.908Z,91.26
2018-11-13T06:00:49.375Z,91.16
2018-11-13T06:01:54.892Z,91.16
2018-11-13T06:03:00.397Z,91.83
2018-11-13T06:04:04.905Z,91.83
2018-11-13T06:05:11.425Z,92.12
2018-11-13T06:06:16.916Z,91.07
2018-11-13T06:07:22.452Z,91.45
2018-11-13T06:08:26.981Z,91.45
2018-11-13T06:09:33.454Z,91.07
2018-11-13T06:10:38.973Z,91.55
2018-11-13T06:11:44.496Z,91.16
2018-11-13T06:12:48.984Z,91.55
2018-11-13T06:13:55.550Z,91.07
2018-11-13T06:15:01.023Z,90.59
2018-11-13T06:16:06.525Z,91.55
2018-11-13T06:17:11.038Z,90.97
2018-11-13T06:18:17.612Z,91.16
2018-11-13T06:19:23.061Z,91.45
2018-11-13T06:20:28.570Z,90.59
2018-11-13T06:21:33.092Z,91.45
2018-11-13T06:22:39.613Z,91.36
2018-11-13T06:23:45.107Z,90.69
2018-11-13T06:24:50.629Z,90.88
2018-11-13T06:25:55.126Z,90.97
2018-11-13T06:27:01.651Z,91.16
2018-11-13T06:28:07.183Z,91.64
2018-11-13T06:29:12.692Z,91.36
2018-11-13T06:30:17.161Z,90.88
2018-11-13T06:31:23.682Z,90.59
2018-11-13T06:32:29.199Z,90.78
2018-11-13T06:33:34.706Z,90.40
2018-11-13T06:34:39.211Z,90.69
2018-11-13T06:35:45.734Z,90.69
2018-11-13T06:36:51.235Z,90.97
2018-11-13T06:37:56.763Z,90.88
2018-11-13T06:39:01.247Z,90.69
2018-11-13T06:40:07.790Z,90.88
2018-11-13T06:41:13.284Z,90.69
2018-11-13T06:42:18.813Z,90.78
2018-11-13T06:43:23.299Z,90.78
2018-11-13T06:44:29.828Z,90.88
2018-11-13T06:45:35.341Z,90.97
2018-11-13T06:46:40.844Z,90.88
2018-11-13T06:47:45.333Z,90.78
2018-11-13T06:48:51.867Z,91.16
2018-11-13T06:49:57.385Z,90.88
2018-11-13T06:51:02.876Z,91.55
2018-11-13T06:52:07.406Z,90.78
2018-11-13T06:53:13.907Z,91.36
2018-11-13T06:54:19.412Z,90.78
2018-11-13T06:55:24.939Z,91.07
2018-11-13T06:56:29.441Z,90.78
2018-11-13T06:57:35.965Z,90.97
2018-11-13T06:58:41.469Z,91.16
2018-11-13T06:59:46.972Z,91.12
2018-11-13T07:00:51.486Z,91.16
2018-11-13T07:01:57.992Z,91.16
2018-11-13T07:03:03.499Z,91.64
2018-11-13T07:04:09.027Z,91.07
2018-11-13T07:05:13.655Z,90.73
2018-11-13T07:06:20.029Z,90.73
2018-11-13T07:07:25.553Z,90.64
2018-11-13T07:08:31.055Z,91.21
2018-11-13T07:09:35.559Z,91.31
2018-11-13T07:10:42.133Z,90.73
2018-11-13T07:11:47.606Z,91.12
2018-11-13T07:12:53.102Z,91.41
2018-11-13T07:13:57.618Z,90.83
2018-11-13T07:15:04.134Z,90.55
2018-11-13T07:16:09.649Z,91.50
2018-11-13T07:17:15.173Z,90.55
2018-11-13T07:18:19.648Z,90.93
2018-11-13T07:19:26.168Z,90.64
2018-11-13T07:20:31.677Z,90.73
2018-11-13T07:21:37.190Z,90.93
2018-11-13T07:22:41.686Z,90.73
2018-11-13T07:23:48.210Z,90.93
2018-11-13T07:24:53.739Z,90.73
2018-11-13T07:25:59.250Z,90.83
2018-11-13T07:27:03.751Z,90.55
2018-11-13T07:28:10.261Z,89.78
2018-11-13T07:29:15.763Z,90.26
2018-11-13T07:30:21.279Z,90.50
2018-11-13T07:31:25.806Z,90.55
2018-11-13T07:32:32.310Z,90.11
2018-11-13T07:33:37.846Z,90.31
2018-11-13T07:34:43.330Z,90.97
2018-11-13T07:35:47.820Z,90.78
2018-11-13T07:36:54.344Z,90.78
2018-11-13T07:37:59.864Z,89.83
2018-11-13T07:39:05.393Z,90.59
2018-11-13T07:40:09.872Z,90.40
2018-11-13T07:41:16.445Z,90.11
2018-11-13T07:42:21.899Z,89.16
2018-11-13T07:43:27.405Z,89.35
2018-11-13T07:44:31.922Z,89.35
2018-11-13T07:45:38.429Z,88.87
2018-11-13T07:46:44.031Z,88.87
2018-11-13T07:47:49.702Z,89.06
2018-11-13T07:48:53.948Z,88.49
2018-11-13T07:50:00.469Z,88.49
2018-11-13T07:51:06.016Z,89.16
2018-11-13T07:52:11.499Z,88.30
2018-11-13T07:53:15.998Z,88.20
2018-11-13T07:54:22.545Z,87.63
2018-11-13T07:55:28.023Z,87.73
2018-11-13T07:56:33.569Z,88.44
2018-11-13T07:57:38.049Z,88.34
2018-11-13T07:58:44.558Z,87.77
2018-11-13T07:59:50.084Z,88.06
2018-11-13T08:00:55.590Z,87.58
2018-11-13T08:02:00.090Z,87.10
2018-11-13T08:03:06.631Z,86.63
2018-11-13T08:04:12.124Z,86.91
2018-11-13T08:05:17.645Z,87.29
2018-11-13T08:06:22.169Z,87.01
2018-11-13T08:07:28.662Z,87.29
2018-11-13T08:08:34.158Z,87.20
2018-11-13T08:09:39.677Z,86.72
2018-11-13T08:10:44.182Z,87.01
2018-11-13T08:11:50.693Z,87.10
2018-11-13T08:12:56.313Z,87.68
2018-11-13T08:14:01.730Z,85.96
2018-11-13T08:15:06.225Z,87.10
2018-11-13T08:16:12.755Z,86.24
2018-11-13T08:17:18.253Z,86.43
2018-11-13T08:18:23.794Z,86.43
2018-11-13T08:19:28.277Z,86.96
2018-11-13T08:20:34.799Z,86.67
2018-11-13T08:21:40.303Z,86.86
2018-11-13T08:22:45.807Z,86.29
2018-11-13T08:23:50.327Z,86.38
2018-11-13T08:24:56.840Z,86.19
2018-11-13T08:26:02.342Z,85.29
2018-11-13T08:27:07.885Z,84.66
2018-11-13T08:28:12.391Z,84.85
2018-11-13T08:29:18.918Z,85.67
2018-11-13T08:30:24.397Z,84.66
2018-11-13T08:31:29.925Z,84.95
2018-11-13T08:32:34.409Z,84.28
2018-11-13T08:33:40.934Z,84.09
2018-11-13T08:34:46.515Z,83.99
2018-11-13T08:35:51.961Z,84.28
2018-11-13T08:36:56.447Z,85.05
2018-11-13T08:38:02.970Z,85.05
2018-11-13T08:39:08.485Z,84.95
2018-11-13T08:40:14.028Z,84.56
2018-11-13T08:41:18.491Z,84.38
2018-11-13T08:42:25.023Z,84.52
2018-11-13T08:43:30.556Z,84.47
2018-11-13T08:44:36.075Z,84.47
2018-11-13T08:45:40.555Z,84.66
2018-11-13T08:46:47.084Z,84.52
2018-11-13T08:47:52.573Z,84.33
2018-11-13T08:48:58.095Z,84.47
2018-11-13T08:50:02.588Z,85.05
2018-11-13T08:51:09.122Z,84.38
2018-11-13T08:52:14.649Z,84.56
2018-11-13T08:53:20.148Z,85.05
2018-11-13T08:54:24.646Z,85.24
2018-11-13T08:55:31.172Z,84.95
2018-11-13T08:56:36.665Z,85.42
2018-11-13T08:57:42.197Z,85.81
2018-11-13T08:58:46.742Z,84.76
2018-11-13T08:59:53.207Z,85.24
2018-11-13T09:00:58.735Z,85.52
2018-11-13T09:02:04.248Z,84.85
2018-11-13T09:03:08.732Z,84.09
2018-11-13T09:04:15.252Z,83.61
2018-11-13T09:05:20.772Z,84.38
2018-11-13T09:06:26.276Z,82.94
2018-11-13T09:07:30.793Z,82.65
2018-11-13T09:08:37.309Z,83.61
2018-11-13T09:09:42.827Z,83.61
2018-11-13T09:10:48.335Z,83.04
2018-11-13T09:11:52.944Z,82.70
2018-11-13T09:12:59.355Z,82.65
2018-11-13T09:14:04.856Z,83.27
2018-11-13T09:15:10.377Z,83.94
2018-11-13T09:16:14.876Z,83.94
2018-11-13T09:17:21.391Z,83.65
2018-11-13T09:18:26.966Z,83.94
2018-11-13T09:19:32.574Z,83.94
2018-11-13T09:20:36.931Z,84.32
2018-11-13T09:21:43.450Z,82.79
2018-11-13T09:22:48.955Z,82.31
2018-11-13T09:23:54.464Z,82.22
2018-11-13T09:24:58.985Z,82.51
2018-11-13T09:26:05.487Z,82.41
2018-11-13T09:27:11.018Z,82.70
2018-11-13T09:28:16.513Z,82.98
2018-11-13T09:29:21.014Z,82.70
2018-11-13T09:30:27.665Z,82.22
2018-11-13T09:31:33.057Z,82.51
2018-11-13T09:32:38.562Z,82.98
2018-11-13T09:33:43.053Z,84.13
2018-11-13T09:34:49.580Z,83.27
2018-11-13T09:35:55.146Z,82.22
2018-11-13T09:37:00.598Z,81.93
2018-11-13T09:38:05.107Z,82.70
2018-11-13T09:39:11.644Z,81.84
2018-11-13T09:40:17.156Z,82.12
2018-11-13T09:41:22.654Z,81.93
2018-11-13T09:42:27.158Z,81.36
2018-11-13T09:43:33.672Z,81.36
2018-11-13T09:44:39.218Z,81.16
2018-11-13T09:45:44.711Z,81.26
2018-11-13T09:46:49.202Z,81.84
2018-11-13T09:47:55.810Z,82.79
2018-11-13T09:49:01.246Z,81.26
2018-11-13T09:50:06.762Z,81.07
2018-11-13T09:51:11.244Z,80.69
2018-11-13T09:52:17.765Z,81.45
2018-11-13T09:53:23.310Z,82.31
2018-11-13T09:54:28.803Z,82.51
2018-11-13T09:55:33.321Z,82.60
2018-11-13T09:56:39.818Z,82.51
2018-11-13T09:57:45.335Z,81.36
2018-11-13T09:58:50.852Z,80.59
2018-11-13T09:59:55.404Z,81.74
2018-11-13T10:01:02.004Z,81.45
2018-11-13T10:02:08.002Z,81.26
2018-11-13T10:03:13.584Z,82.22
2018-11-13T10:04:17.977Z,82.41
2018-11-13T10:05:23.987Z,81.93
2018-11-13T10:06:29.428Z,81.93
2018-11-13T10:07:34.939Z,81.93
2018-11-13T10:08:39.449Z,82.31
2018-11-13T10:09:45.957Z,81.26
2018-11-13T10:10:51.542Z,81.16
2018-11-13T10:11:56.998Z,81.16
2018-11-13T10:13:01.503Z,81.45
2018-11-13T10:14:08.007Z,80.40
2018-11-13T10:15:13.518Z,80.59
2018-11-13T10:16:19.028Z,81.36
2018-11-13T10:17:23.538Z,81.16
2018-11-13T10:18:30.078Z,81.07
2018-11-13T10:19:35.565Z,81.55
2018-11-13T10:20:41.080Z,81.26
2018-11-13T10:21:45.580Z,80.40
2018-11-13T10:22:52.103Z,80.30
2018-11-13T10:23:57.622Z,80.59
2018-11-13T10:25:03.143Z,80.30
2018-11-13T10:26:07.645Z,80.21
2018-11-13T10:27:14.167Z,80.40
2018-11-13T10:28:19.739Z,80.69
2018-11-13T10:29:25.172Z,80.21
2018-11-13T10:30:29.709Z,79.83
2018-11-13T10:31:36.201Z,80.11
2018-11-13T10:32:41.719Z,79.93
2018-11-13T10:33:47.239Z,79.83
2018-11-13T10:34:51.729Z,80.02
2018-11-13T10:35:58.262Z,80.79
2018-11-13T10:37:03.776Z,80.79
2018-11-13T10:38:09.297Z,79.54
2018-11-13T10:39:13.777Z,80.11
2018-11-13T10:40:20.383Z,80.21
2018-11-13T10:41:25.932Z,79.64
2018-11-13T10:42:31.325Z,78.97
2018-11-13T10:43:35.824Z,78.78
2018-11-13T10:44:42.337Z,79.16
2018-11-13T10:45:47.866Z,79.39
2018-11-13T10:46:53.374Z,78.91
2018-11-13T10:47:57.882Z,79.00
2018-11-13T10:49:04.484Z,78.24
2018-11-13T10:50:09.916Z,77.48
2018-11-13T10:51:15.404Z,77.76
2018-11-13T10:52:19.959Z,77.13
2018-11-13T10:53:26.452Z,77.51
2018-11-13T10:54:31.962Z,76.84
2018-11-13T10:55:37.469Z,76.75
2018-11-13T10:56:41.969Z,76.08
2018-11-13T10:57:48.485Z,76.37
2018-11-13T10:58:54.015Z,76.27
2018-11-13T10:59:59.535Z,76.27
2018-11-13T11:01:04.027Z,75.45
2018-11-13T11:02:10.600Z,75.93
2018-11-13T11:03:16.072Z,74.97
2018-11-13T11:04:21.575Z,74.01
2018-11-13T11:05:26.073Z,74.40
2018-11-13T11:06:32.602Z,73.82
2018-11-13T11:07:38.107Z,73.21
2018-11-13T11:08:43.637Z,74.45
2018-11-13T11:09:48.105Z,75.02
2018-11-13T11:10:54.672Z,75.31
2018-11-13T11:12:00.155Z,75.12
2018-11-13T11:13:05.797Z,74.74
2018-11-13T11:14:10.181Z,73.40
2018-11-13T11:15:16.705Z,73.69
2018-11-13T11:16:22.207Z,73.17
2018-11-13T11:17:27.748Z,72.79
2018-11-13T11:18:32.224Z,72.88
2018-11-13T11:19:38.740Z,73.55
2018-11-13T11:20:44.247Z,73.46
2018-11-13T11:21:49.777Z,72.98
2018-11-13T11:22:54.530Z,74.04
2018-11-13T11:24:00.822Z,74.80
2018-11-13T11:25:06.352Z,74.80
2018-11-13T11:26:11.833Z,75.56
2018-11-13T11:27:16.309Z,74.22
2018-11-13T11:28:22.835Z,74.32
2018-11-13T11:29:28.367Z,74.22
2018-11-13T11:30:33.877Z,73.65
2018-11-13T11:31:38.359Z,74.41
2018-11-13T11:32:44.923Z,73.75
2018-11-13T11:33:50.425Z,73.65
2018-11-13T11:34:55.936Z,73.17
2018-11-13T11:36:00.416Z,73.36
2018-11-13T11:37:06.930Z,73.46
2018-11-13T11:38:12.442Z,74.32
2018-11-13T11:39:18.029Z,73.40
2018-11-13T11:40:22.459Z,73.02
2018-11-13T11:41:28.991Z,73.69
2018-11-13T11:42:34.502Z,73.79
2018-11-13T11:43:40.011Z,73.21
2018-11-13T11:44:44.508Z,73.50
2018-11-13T11:45:51.031Z,73.40
2018-11-13T11:46:56.555Z,73.11
2018-11-13T11:48:02.064Z,73.40
2018-11-13T11:49:06.568Z,73.59
2018-11-13T11:50:13.081Z,73.97
2018-11-13T11:51:18.601Z,72.73
2018-11-13T11:52:24.094Z,72.73
2018-11-13T11:53:28.618Z,73.02
2018-11-13T11:54:35.148Z,72.63
2018-11-13T11:55:40.649Z,72.54
2018-11-13T11:56:46.204Z,72.83
2018-11-13T11:57:50.660Z,71.97
2018-11-13T11:58:57.195Z,72.00
2018-11-13T12:00:02.696Z,72.38
2018-11-13T12:01:08.211Z,72.29
2018-11-13T12:02:12.740Z,73.63
2018-11-13T12:03:19.227Z,73.34
2018-11-13T12:04:24.746Z,72.86
2018-11-13T12:05:30.261Z,73.63
2018-11-13T12:06:34.772Z,72.86
2018-11-13T12:07:41.303Z,72.19
2018-11-13T12:08:46.800Z,72.71
2018-11-13T12:09:52.334Z,71.56
2018-11-13T12:10:56.812Z,70.12
2018-11-13T12:12:03.351Z,70.50
2018-11-13T12:13:08.858Z,70.50
2018-11-13T12:14:14.377Z,70.50
2018-11-13T12:15:18.862Z,70.12
2018-11-13T12:16:25.383Z,70.21
2018-11-13T12:17:30.917Z,70.31
2018-11-13T12:18:36.424Z,70.50
2018-11-13T12:19:40.913Z,69.93
2018-11-13T12:20:47.440Z,70.03
2018-11-13T12:21:52.963Z,70.98
2018-11-13T12:22:58.469Z,70.60
2018-11-13T12:24:02.971Z,71.17
2018-11-13T12:25:09.490Z,70.15
2018-11-13T12:26:15.017Z,69.87
2018-11-13T12:27:20.542Z,69.64
2018-11-13T12:28:25.012Z,70.12
2018-11-13T12:29:31.548Z,70.98
2018-11-13T12:30:37.040Z,71.17
2018-11-13T12:31:42.583Z,71.27
2018-11-13T12:32:47.071Z,71.14
2018-11-13T12:33:53.621Z,71.46
2018-11-13T12:34:59.122Z,70.89
2018-11-13T12:36:04.626Z,70.60
2018-11-13T12:37:09.157Z,70.19
2018-11-13T12:38:15.656Z,70.15
2018-11-13T12:39:21.193Z,69.58
2018-11-13T12:40:26.683Z,69.01
2018-11-13T12:41:31.179Z,67.72
2018-11-13T12:42:37.709Z,68.11
2018-11-13T12:43:43.224Z,68.81
2018-11-13T12:44:48.720Z,69.48
2018-11-13T12:45:53.263Z,68.72
2018-11-13T12:46:59.761Z,68.30
2018-11-13T12:48:05.266Z,69.26
2018-11-13T12:49:10.807Z,69.83
2018-11-13T12:50:15.279Z,69.07
2018-11-13T12:51:21.804Z,69.45
2018-11-13T12:52:27.308Z,69.45
2018-11-13T12:53:32.829Z,69.54
2018-11-13T12:54:37.332Z,70.12
2018-11-13T12:55:43.947Z,69.54
2018-11-13T12:56:49.397Z,69.54
2018-11-13T12:57:54.887Z,69.54
2018-11-13T12:58:59.404Z,68.97
2018-11-13T13:00:05.922Z,68.21
2018-11-13T13:01:11.423Z,69.01
2018-11-13T13:02:17.018Z,68.72
2018-11-13T13:03:21.450Z,69.04
2018-11-13T13:04:27.975Z,68.40
2018-11-13T13:05:33.487Z,66.52
2018-11-13T13:06:38.986Z,65.94
2018-11-13T13:07:43.514Z,65.30
2018-11-13T13:08:50.133Z,63.86
2018-11-13T13:09:55.539Z,60.72
2018-11-13T13:11:01.033Z,61.78
2018-11-13T13:12:05.573Z,62.55
2018-11-13T13:13:12.096Z,62.45
2018-11-13T13:14:17.695Z,60.14
2018-11-13T13:15:23.123Z,60.14
2018-11-13T13:16:27.619Z,60.05
2018-11-13T13:17:34.171Z,59.47
2018-11-13T13:18:39.686Z,60.14
2018-11-13T13:19:45.166Z,60.46
2018-11-13T13:20:49.670Z,59.31
2018-11-13T13:21:56.198Z,59.50
2018-11-13T13:23:01.717Z,59.60
2018-11-13T13:24:07.232Z,60.21
2018-11-13T13:25:11.722Z,58.89
2018-11-13T13:26:18.258Z,58.76
2018-11-13T13:27:23.756Z,59.60
2018-11-13T13:28:29.279Z,58.64
2018-11-13T13:29:33.793Z,59.47
2018-11-13T13:30:40.329Z,59.95
2018-11-13T13:31:45.891Z,59.79
2018-11-13T13:32:51.337Z,60.27
2018-11-13T13:33:55.857Z,60.14
2018-11-13T13:35:02.364Z,61.46
2018-11-13T13:36:07.902Z,61.55
2018-11-13T13:37:13.423Z,62.29
2018-11-13T13:38:17.899Z,62.39
2018-11-13T13:39:24.439Z,62.96
2018-11-13T13:40:29.928Z,63.89
2018-11-13T13:41:35.470Z,63.70
2018-11-13T13:42:39.954Z,64.25
2018-11-13T13:43:46.490Z,64.43
2018-11-13T13:44:52.003Z,66.16
2018-11-13T13:45:57.530Z,66.51
2018-11-13T13:47:02.026Z,66.61
2018-11-13T13:48:08.543Z,66.99
2018-11-13T13:49:14.054Z,66.80
2018-11-13T13:50:19.567Z,67.47
2018-11-13T13:51:24.071Z,67.09
2018-11-13T13:52:30.608Z,67.63
2018-11-13T13:53:36.137Z,68.59
2018-11-13T13:54:41.624Z,68.87
2018-11-13T13:55:46.115Z,69.35
2018-11-13T13:56:52.641Z,68.59
2018-11-13T13:57:58.187Z,69.54
2018-11-13T13:59:03.683Z,69.64
2018-11-13T14:00:08.317Z,69.60
2018-11-13T14:01:14.777Z,70.18
2018-11-13T14:02:20.231Z,69.89
2018-11-13T14:03:25.735Z,69.60